sensor_id;sensor_type;location;lat;lon;timestamp;pressure;altitude;pressure_sealevel;temperature;humidity
56831;BME280;42713;42.676;23.352;2023-03-01T00:01:35;95261.88;;;7.81;72.39
56831;BME280;42713;42.676;23.352;2023-03-01T00:04:01;95258.25;;;7.82;72.82
56831;BME280;42713;42.676;23.352;2023-03-01T00:06:27;95255.63;;;7.82;72.12
56831;BME280;42713;42.676;23.352;2023-03-01T00:08:53;95247.63;;;7.83;72.73
56831;BME280;42713;42.676;23.352;2023-03-01T00:11:24;95247.03;;;7.81;71.96
56831;BME280;42713;42.676;23.352;2023-03-01T00:13:52;95250.00;;;7.85;72.52
56831;BME280;42713;42.676;23.352;2023-03-01T00:16:24;95254.25;;;7.79;72.21
56831;BME280;42713;42.676;23.352;2023-03-01T00:18:50;95240.81;;;7.82;71.89
56831;BME280;42713;42.676;23.352;2023-03-01T00:21:16;95233.19;;;7.81;71.63
56831;BME280;42713;42.676;23.352;2023-03-01T00:23:42;95230.00;;;7.78;71.82
56831;BME280;42713;42.676;23.352;2023-03-01T00:26:10;95230.41;;;7.75;72.02
56831;BME280;42713;42.676;23.352;2023-03-01T00:28:36;95220.78;;;7.76;72.08
56831;BME280;42713;42.676;23.352;2023-03-01T00:31:06;95217.59;;;7.74;72.16
56831;BME280;42713;42.676;23.352;2023-03-01T00:33:32;95219.41;;;7.73;71.95
56831;BME280;42713;42.676;23.352;2023-03-01T00:35:59;95225.84;;;7.71;72.16
56831;BME280;42713;42.676;23.352;2023-03-01T00:38:24;95214.22;;;7.67;72.33
56831;BME280;42713;42.676;23.352;2023-03-01T00:40:50;95210.66;;;7.61;72.04
56831;BME280;42713;42.676;23.352;2023-03-01T00:43:15;95208.25;;;7.59;72.02
56831;BME280;42713;42.676;23.352;2023-03-01T00:45:41;95204.47;;;7.55;72.75
56831;BME280;42713;42.676;23.352;2023-03-01T00:48:07;95203.72;;;7.48;72.43
56831;BME280;42713;42.676;23.352;2023-03-01T00:50:32;95214.31;;;7.53;72.54
56831;BME280;42713;42.676;23.352;2023-03-01T00:52:58;95215.75;;;7.49;72.31
56831;BME280;42713;42.676;23.352;2023-03-01T00:55:24;95205.16;;;7.44;71.99
56831;BME280;42713;42.676;23.352;2023-03-01T00:57:50;95210.91;;;7.53;73.17
56831;BME280;42713;42.676;23.352;2023-03-01T01:00:16;95207.66;;;7.57;72.24
56831;BME280;42713;42.676;23.352;2023-03-01T01:02:42;95196.09;;;7.53;72.36
56831;BME280;42713;42.676;23.352;2023-03-01T01:05:07;95201.13;;;7.48;72.35
56831;BME280;42713;42.676;23.352;2023-03-01T01:07:33;95215.59;;;7.44;72.38
56831;BME280;42713;42.676;23.352;2023-03-01T01:09:59;95214.41;;;7.40;72.37
56831;BME280;42713;42.676;23.352;2023-03-01T01:12:24;95205.72;;;7.46;73.00
56831;BME280;42713;42.676;23.352;2023-03-01T01:14:50;95211.53;;;7.48;72.63
56831;BME280;42713;42.676;23.352;2023-03-01T01:17:15;95211.38;;;7.43;72.51
56831;BME280;42713;42.676;23.352;2023-03-01T01:19:41;95210.19;;;7.39;72.52
56831;BME280;42713;42.676;23.352;2023-03-01T01:22:06;95210.38;;;7.44;72.63
56831;BME280;42713;42.676;23.352;2023-03-01T01:24:32;95210.16;;;7.45;72.58
56831;BME280;42713;42.676;23.352;2023-03-01T01:26:57;95207.78;;;7.44;72.25
56831;BME280;42713;42.676;23.352;2023-03-01T01:29:23;95204.19;;;7.38;71.89
56831;BME280;42713;42.676;23.352;2023-03-01T01:31:48;95208.41;;;7.39;72.65
56831;BME280;42713;42.676;23.352;2023-03-01T01:34:17;95209.97;;;7.40;71.74
56831;BME280;42713;42.676;23.352;2023-03-01T01:36:43;95219.63;;;7.40;72.08
56831;BME280;42713;42.676;23.352;2023-03-01T01:39:09;95225.03;;;7.38;71.95
56831;BME280;42713;42.676;23.352;2023-03-01T01:41:39;95219.03;;;7.31;71.78
56831;BME280;42713;42.676;23.352;2023-03-01T01:44:13;95233.69;;;7.32;71.95
56831;BME280;42713;42.676;23.352;2023-03-01T01:47:06;95228.47;;;7.32;71.76
56831;BME280;42713;42.676;23.352;2023-03-01T01:49:46;95225.84;;;7.32;71.35
56831;BME280;42713;42.676;23.352;2023-03-01T01:52:22;95219.88;;;7.31;71.63
56831;BME280;42713;42.676;23.352;2023-03-01T01:55:00;95223.69;;;7.29;71.56
56831;BME280;42713;42.676;23.352;2023-03-01T01:57:45;95212.03;;;7.31;72.00
56831;BME280;42713;42.676;23.352;2023-03-01T02:00:20;95208.22;;;7.34;71.34
56831;BME280;42713;42.676;23.352;2023-03-01T02:02:47;95208.81;;;7.36;71.26
56831;BME280;42713;42.676;23.352;2023-03-01T02:07:55;95201.00;;;7.36;70.65
56831;BME280;42713;42.676;23.352;2023-03-01T02:10:23;95200.63;;;7.32;70.46
56831;BME280;42713;42.676;23.352;2023-03-01T02:12:49;95192.19;;;7.30;70.90
56831;BME280;42713;42.676;23.352;2023-03-01T02:15:15;95189.38;;;7.32;70.55
56831;BME280;42713;42.676;23.352;2023-03-01T02:17:41;95199.19;;;7.30;70.19
56831;BME280;42713;42.676;23.352;2023-03-01T02:20:11;95195.03;;;7.29;70.93
56831;BME280;42713;42.676;23.352;2023-03-01T02:22:39;95191.38;;;7.30;70.57
56831;BME280;42713;42.676;23.352;2023-03-01T02:30:19;95188.59;;;7.31;70.34
56831;BME280;42713;42.676;23.352;2023-03-01T02:32:46;95193.81;;;7.31;70.51
56831;BME280;42713;42.676;23.352;2023-03-01T02:35:14;95200.25;;;7.29;69.90
56831;BME280;42713;42.676;23.352;2023-03-01T02:37:42;95201.66;;;7.25;70.88
56831;BME280;42713;42.676;23.352;2023-03-01T02:40:11;95204.66;;;7.22;71.03
56831;BME280;42713;42.676;23.352;2023-03-01T02:42:47;95201.66;;;7.25;71.20
56831;BME280;42713;42.676;23.352;2023-03-01T02:45:15;95202.44;;;7.25;71.26
56831;BME280;42713;42.676;23.352;2023-03-01T02:47:41;95198.63;;;7.28;71.49
56831;BME280;42713;42.676;23.352;2023-03-01T02:55:32;95205.25;;;7.24;71.24
56831;BME280;42713;42.676;23.352;2023-03-01T02:58:01;95195.66;;;7.24;70.96
56831;BME280;42713;42.676;23.352;2023-03-01T03:00:35;95191.59;;;7.28;71.27
56831;BME280;42713;42.676;23.352;2023-03-01T03:03:05;95193.84;;;7.25;71.08
56831;BME280;42713;42.676;23.352;2023-03-01T03:05:31;95189.41;;;7.25;70.97
56831;BME280;42713;42.676;23.352;2023-03-01T03:07:57;95196.22;;;7.26;70.96
56831;BME280;42713;42.676;23.352;2023-03-01T03:10:29;95192.66;;;7.21;70.71
56831;BME280;42713;42.676;23.352;2023-03-01T03:13:00;95189.66;;;7.17;71.00
56831;BME280;42713;42.676;23.352;2023-03-01T03:15:27;95196.47;;;7.18;71.24
56831;BME280;42713;42.676;23.352;2023-03-01T03:17:54;95194.88;;;7.17;71.16
56831;BME280;42713;42.676;23.352;2023-03-01T03:20:22;95198.47;;;7.16;71.71
56831;BME280;42713;42.676;23.352;2023-03-01T03:22:51;95198.69;;;7.14;71.08
56831;BME280;42713;42.676;23.352;2023-03-01T03:25:18;95194.13;;;7.10;71.33
56831;BME280;42713;42.676;23.352;2023-03-01T03:27:46;95201.75;;;7.05;72.02
56831;BME280;42713;42.676;23.352;2023-03-01T03:30:18;95203.16;;;7.07;71.78
56831;BME280;42713;42.676;23.352;2023-03-01T03:32:46;95204.53;;;7.10;71.88
56831;BME280;42713;42.676;23.352;2023-03-01T03:35:27;95200.09;;;7.10;71.98
56831;BME280;42713;42.676;23.352;2023-03-01T03:37:56;95206.75;;;7.06;71.48
56831;BME280;42713;42.676;23.352;2023-03-01T03:40:31;95209.75;;;7.10;71.65
56831;BME280;42713;42.676;23.352;2023-03-01T03:42:57;95201.56;;;7.06;71.53
56831;BME280;42713;42.676;23.352;2023-03-01T03:45:23;95206.00;;;6.99;72.18
56831;BME280;42713;42.676;23.352;2023-03-01T03:47:48;95215.00;;;6.96;71.44
56831;BME280;42713;42.676;23.352;2023-03-01T03:50:15;95209.25;;;6.88;71.94
56831;BME280;42713;42.676;23.352;2023-03-01T03:52:41;95212.03;;;6.86;72.25
56831;BME280;42713;42.676;23.352;2023-03-01T03:55:08;95222.66;;;6.84;72.33
56831;BME280;42713;42.676;23.352;2023-03-01T03:57:37;95215.84;;;6.83;72.66
56831;BME280;42713;42.676;23.352;2023-03-01T04:00:05;95208.47;;;6.80;72.21
56831;BME280;42713;42.676;23.352;2023-03-01T04:02:39;95213.84;;;6.85;72.84
56831;BME280;42713;42.676;23.352;2023-03-01T04:05:05;95217.47;;;6.78;72.33
56831;BME280;42713;42.676;23.352;2023-03-01T04:07:30;95227.47;;;6.88;72.53
56831;BME280;42713;42.676;23.352;2023-03-01T04:09:56;95221.81;;;6.91;72.34
56831;BME280;42713;42.676;23.352;2023-03-01T04:12:21;95226.25;;;6.90;72.19
56831;BME280;42713;42.676;23.352;2023-03-01T04:14:48;95222.44;;;6.93;72.50
56831;BME280;42713;42.676;23.352;2023-03-01T04:17:14;95225.47;;;6.90;72.41
56831;BME280;42713;42.676;23.352;2023-03-01T04:19:39;95224.66;;;6.89;73.06
56831;BME280;42713;42.676;23.352;2023-03-01T04:22:05;95226.25;;;6.90;73.08
56831;BME280;42713;42.676;23.352;2023-03-01T04:24:37;95217.84;;;6.88;72.46
56831;BME280;42713;42.676;23.352;2023-03-01T04:27:03;95220.66;;;6.87;72.79
56831;BME280;42713;42.676;23.352;2023-03-01T04:29:28;95217.06;;;6.88;72.88
56831;BME280;42713;42.676;23.352;2023-03-01T04:31:54;95223.66;;;6.90;72.19
56831;BME280;42713;42.676;23.352;2023-03-01T04:34:19;95217.66;;;6.90;72.39
56831;BME280;42713;42.676;23.352;2023-03-01T04:36:45;95219.81;;;6.93;72.19
56831;BME280;42713;42.676;23.352;2023-03-01T04:39:11;95218.81;;;6.94;72.54
56831;BME280;42713;42.676;23.352;2023-03-01T04:41:39;95222.81;;;6.96;72.37
56831;BME280;42713;42.676;23.352;2023-03-01T04:44:06;95218.81;;;6.94;72.54
56831;BME280;42713;42.676;23.352;2023-03-01T04:46:32;95210.41;;;6.92;72.97
56831;BME280;42713;42.676;23.352;2023-03-01T04:48:57;95212.84;;;6.93;73.15
56831;BME280;42713;42.676;23.352;2023-03-01T04:51:23;95211.63;;;6.89;72.43
56831;BME280;42713;42.676;23.352;2023-03-01T04:53:48;95208.44;;;6.87;72.67
56831;BME280;42713;42.676;23.352;2023-03-01T04:56:14;95204.19;;;6.93;72.64
56831;BME280;42713;42.676;23.352;2023-03-01T04:58:41;95206.22;;;6.91;72.65
56831;BME280;42713;42.676;23.352;2023-03-01T05:01:15;95216.63;;;6.91;72.14
56831;BME280;42713;42.676;23.352;2023-03-01T05:03:43;95214.63;;;6.86;72.80
56831;BME280;42713;42.676;23.352;2023-03-01T05:06:09;95213.25;;;6.83;72.76
56831;BME280;42713;42.676;23.352;2023-03-01T05:08:37;95213.47;;;6.82;72.68
56831;BME280;42713;42.676;23.352;2023-03-01T05:11:03;95221.44;;;6.87;73.26
56831;BME280;42713;42.676;23.352;2023-03-01T05:13:28;95215.84;;;6.83;72.76
56831;BME280;42713;42.676;23.352;2023-03-01T05:15:59;95215.84;;;6.83;73.27
56831;BME280;42713;42.676;23.352;2023-03-01T05:18:25;95217.69;;;6.83;73.12
56831;BME280;42713;42.676;23.352;2023-03-01T05:20:55;95224.50;;;6.77;73.45
56831;BME280;42713;42.676;23.352;2023-03-01T05:23:24;95215.31;;;6.75;73.08
56831;BME280;42713;42.676;23.352;2023-03-01T05:25:50;95209.28;;;6.74;72.86
56831;BME280;42713;42.676;23.352;2023-03-01T05:28:18;95214.09;;;6.77;73.00
56831;BME280;42713;42.676;23.352;2023-03-01T05:30:43;95211.09;;;6.74;73.45
56831;BME280;42713;42.676;23.352;2023-03-01T05:33:09;95216.91;;;6.76;72.96
56831;BME280;42713;42.676;23.352;2023-03-01T05:35:39;95215.69;;;6.78;73.07
56831;BME280;42713;42.676;23.352;2023-03-01T05:38:17;95209.66;;;6.78;73.30
56831;BME280;42713;42.676;23.352;2023-03-01T05:40:45;95216.69;;;6.77;73.00
56831;BME280;42713;42.676;23.352;2023-03-01T05:43:13;95221.28;;;6.75;72.77
56831;BME280;42713;42.676;23.352;2023-03-01T05:45:40;95230.09;;;6.81;72.75
56831;BME280;42713;42.676;23.352;2023-03-01T05:48:06;95228.88;;;6.83;72.88
56831;BME280;42713;42.676;23.352;2023-03-01T05:50:43;95222.91;;;6.76;72.80
56831;BME280;42713;42.676;23.352;2023-03-01T05:53:18;95232.09;;;6.79;73.33
56831;BME280;42713;42.676;23.352;2023-03-01T05:55:45;95233.09;;;6.84;72.57
56831;BME280;42713;42.676;23.352;2023-03-01T05:58:16;95235.50;;;6.79;72.73
56831;BME280;42713;42.676;23.352;2023-03-01T06:00:43;95240.91;;;6.78;72.51
56831;BME280;42713;42.676;23.352;2023-03-01T06:03:10;95242.09;;;6.82;72.05
56831;BME280;42713;42.676;23.352;2023-03-01T06:05:36;95241.09;;;6.83;71.91
56831;BME280;42713;42.676;23.352;2023-03-01T06:08:02;95245.31;;;6.77;72.46
56831;BME280;42713;42.676;23.352;2023-03-01T06:10:28;95248.31;;;6.81;72.32
56831;BME280;42713;42.676;23.352;2023-03-01T06:12:54;95252.91;;;6.79;72.96
56831;BME280;42713;42.676;23.352;2023-03-01T06:15:19;95258.13;;;6.79;72.34
56831;BME280;42713;42.676;23.352;2023-03-01T06:17:46;95256.53;;;6.78;72.72
56831;BME280;42713;42.676;23.352;2023-03-01T06:20:21;95267.16;;;6.83;73.62
56831;BME280;42713;42.676;23.352;2023-03-01T06:22:48;95271.75;;;6.81;73.72
56831;BME280;42713;42.676;23.352;2023-03-01T06:25:16;95264.72;;;6.81;73.04
56831;BME280;42713;42.676;23.352;2023-03-01T06:27:43;95266.53;;;6.81;73.42
56831;BME280;42713;42.676;23.352;2023-03-01T06:30:10;95261.34;;;6.81;72.81
56831;BME280;42713;42.676;23.352;2023-03-01T06:32:37;95255.97;;;6.76;73.06
56831;BME280;42713;42.676;23.352;2023-03-01T06:35:04;95260.94;;;6.77;73.04
56831;BME280;42713;42.676;23.352;2023-03-01T06:37:29;95261.94;;;6.83;74.81
56831;BME280;42713;42.676;23.352;2023-03-01T06:39:55;95260.34;;;6.82;72.99
56831;BME280;42713;42.676;23.352;2023-03-01T06:42:20;95271.34;;;6.84;73.35
56831;BME280;42713;42.676;23.352;2023-03-01T06:44:46;95266.72;;;6.86;72.98
56831;BME280;42713;42.676;23.352;2023-03-01T06:47:12;95263.31;;;6.85;73.01
56831;BME280;42713;42.676;23.352;2023-03-01T06:49:37;95260.94;;;6.84;72.86
56831;BME280;42713;42.676;23.352;2023-03-01T06:52:03;95262.94;;;6.75;72.52
56831;BME280;42713;42.676;23.352;2023-03-01T06:54:28;95261.34;;;6.81;72.54
56831;BME280;42713;42.676;23.352;2023-03-01T06:56:54;95267.53;;;6.80;72.71
56831;BME280;42713;42.676;23.352;2023-03-01T06:59:19;95261.94;;;6.83;72.31
56831;BME280;42713;42.676;23.352;2023-03-01T07:01:45;95258.53;;;6.82;72.65
56831;BME280;42713;42.676;23.352;2023-03-01T07:04:11;95262.50;;;6.92;72.83
56831;BME280;42713;42.676;23.352;2023-03-01T07:06:37;95262.50;;;6.92;72.66
56831;BME280;42713;42.676;23.352;2023-03-01T07:09:02;95269.69;;;6.96;72.03
56831;BME280;42713;42.676;23.352;2023-03-01T07:11:28;95267.50;;;7.00;71.74
56831;BME280;42713;42.676;23.352;2023-03-01T07:13:53;95262.28;;;7.00;72.02
56831;BME280;42713;42.676;23.352;2023-03-01T07:16:20;95260.72;;;6.92;72.04
56831;BME280;42713;42.676;23.352;2023-03-01T07:18:46;95261.50;;;6.93;72.07
56831;BME280;42713;42.676;23.352;2023-03-01T07:21:12;95261.69;;;6.98;72.44
56831;BME280;42713;42.676;23.352;2023-03-01T07:23:38;95257.28;;;6.98;71.67
56831;BME280;42713;42.676;23.352;2023-03-01T07:26:04;95252.25;;;7.04;71.51
56831;BME280;42713;42.676;23.352;2023-03-01T07:28:29;95255.63;;;7.11;71.86
56831;BME280;42713;42.676;23.352;2023-03-01T07:31:01;95253.00;;;7.18;71.87
56831;BME280;42713;42.676;23.352;2023-03-01T07:33:26;95251.78;;;7.20;70.87
56831;BME280;42713;42.676;23.352;2023-03-01T07:35:59;95247.94;;;7.23;71.79
56831;BME280;42713;42.676;23.352;2023-03-01T07:38:25;95243.97;;;7.20;71.20
56831;BME280;42713;42.676;23.352;2023-03-01T07:40:51;95241.97;;;7.22;70.23
56831;BME280;42713;42.676;23.352;2023-03-01T07:43:17;95243.75;;;7.22;70.46
56831;BME280;42713;42.676;23.352;2023-03-01T07:45:43;95248.78;;;7.23;70.65
56831;BME280;42713;42.676;23.352;2023-03-01T07:48:09;95240.56;;;7.20;70.12
56831;BME280;42713;42.676;23.352;2023-03-01T07:50:34;95239.13;;;7.24;69.96
56831;BME280;42713;42.676;23.352;2023-03-01T07:53:00;95245.91;;;7.31;69.18
56831;BME280;42713;42.676;23.352;2023-03-01T07:55:25;95236.28;;;7.32;69.20
56831;BME280;42713;42.676;23.352;2023-03-01T07:57:51;95237.69;;;7.35;69.43
56831;BME280;42713;42.676;23.352;2023-03-01T08:00:17;95231.44;;;7.36;69.29
56831;BME280;42713;42.676;23.352;2023-03-01T08:02:43;95232.03;;;7.38;68.87
56831;BME280;42713;42.676;23.352;2023-03-01T08:05:09;95233.19;;;7.48;68.65
56831;BME280;42713;42.676;23.352;2023-03-01T08:07:35;95232.13;;;7.56;68.65
56831;BME280;42713;42.676;23.352;2023-03-01T08:10:00;95224.50;;;7.61;68.47
56831;BME280;42713;42.676;23.352;2023-03-01T08:12:27;95234.72;;;7.63;68.03
56831;BME280;42713;42.676;23.352;2023-03-01T08:14:55;95230.09;;;7.65;68.33
56831;BME280;42713;42.676;23.352;2023-03-01T08:17:22;95230.03;;;7.72;68.28
56831;BME280;42713;42.676;23.352;2023-03-01T08:19:47;95224.03;;;7.71;67.70
56831;BME280;42713;42.676;23.352;2023-03-01T08:22:13;95222.00;;;7.73;68.34
56831;BME280;42713;42.676;23.352;2023-03-01T08:24:38;95220.00;;;7.75;67.73
56831;BME280;42713;42.676;23.352;2023-03-01T08:27:04;95223.34;;;7.83;67.55
56831;BME280;42713;42.676;23.352;2023-03-01T08:29:33;95222.47;;;7.89;67.78
56831;BME280;42713;42.676;23.352;2023-03-01T08:31:59;95225.03;;;7.95;67.48
56831;BME280;42713;42.676;23.352;2023-03-01T08:34:24;95219.81;;;7.95;67.11
56831;BME280;42713;42.676;23.352;2023-03-01T08:36:50;95215.63;;;7.94;66.81
56831;BME280;42713;42.676;23.352;2023-03-01T08:39:18;95218.81;;;7.97;66.76
56831;BME280;42713;42.676;23.352;2023-03-01T08:41:45;95217.81;;;7.98;66.53
56831;BME280;42713;42.676;23.352;2023-03-01T08:44:12;95225.00;;;8.02;65.84
56831;BME280;42713;42.676;23.352;2023-03-01T08:46:40;95222.63;;;8.01;65.53
56831;BME280;42713;42.676;23.352;2023-03-01T08:49:17;95219.13;;;8.07;65.64
56831;BME280;42713;42.676;23.352;2023-03-01T08:51:44;95220.38;;;8.04;65.60
56831;BME280;42713;42.676;23.352;2023-03-01T08:54:13;95221.53;;;8.08;64.75
56831;BME280;42713;42.676;23.352;2023-03-01T08:56:40;95231.75;;;8.10;64.38
56831;BME280;42713;42.676;23.352;2023-03-01T08:59:05;95228.16;;;8.11;64.82
56831;BME280;42713;42.676;23.352;2023-03-01T09:01:31;95232.50;;;8.17;64.86
56831;BME280;42713;42.676;23.352;2023-03-01T09:03:56;95227.22;;;8.24;64.33
56831;BME280;42713;42.676;23.352;2023-03-01T09:06:22;95227.81;;;8.26;63.88
56831;BME280;42713;42.676;23.352;2023-03-01T09:08:49;95220.00;;;8.26;63.60
56831;BME280;42713;42.676;23.352;2023-03-01T09:11:18;95216.16;;;8.29;63.65
56831;BME280;42713;42.676;23.352;2023-03-01T09:13:46;95217.16;;;8.28;63.85
56831;BME280;42713;42.676;23.352;2023-03-01T09:16:13;95218.03;;;8.21;63.56
56831;BME280;42713;42.676;23.352;2023-03-01T09:18:39;95233.47;;;8.23;63.62
56831;BME280;42713;42.676;23.352;2023-03-01T09:21:10;95232.44;;;8.24;63.23
56831;BME280;42713;42.676;23.352;2023-03-01T09:23:38;95222.22;;;8.22;63.53
56831;BME280;42713;42.676;23.352;2023-03-01T09:26:06;95220.78;;;8.26;63.59
56831;BME280;42713;42.676;23.352;2023-03-01T09:28:31;95213.47;;;8.35;63.82
56831;BME280;42713;42.676;23.352;2023-03-01T09:31:03;95210.41;;;8.38;63.22
56831;BME280;42713;42.676;23.352;2023-03-01T09:33:30;95211.66;;;8.36;63.27
56831;BME280;42713;42.676;23.352;2023-03-01T09:36:03;95216.22;;;8.40;63.22
56831;BME280;42713;42.676;23.352;2023-03-01T09:38:30;95210.81;;;8.42;63.15
56831;BME280;42713;42.676;23.352;2023-03-01T09:40:56;95216.19;;;8.47;63.29
56831;BME280;42713;42.676;23.352;2023-03-01T09:43:41;95210.16;;;8.47;62.86
56831;BME280;42713;42.676;23.352;2023-03-01T09:46:10;95200.91;;;8.51;62.88
56831;BME280;42713;42.676;23.352;2023-03-01T09:49:01;95205.03;;;8.59;62.81
56831;BME280;42713;42.676;23.352;2023-03-01T09:51:32;95199.88;;;8.52;62.63
56831;BME280;42713;42.676;23.352;2023-03-01T09:53:58;95198.22;;;8.57;62.98
56831;BME280;42713;42.676;23.352;2023-03-01T09:56:34;95197.44;;;8.57;63.13
56831;BME280;42713;42.676;23.352;2023-03-01T10:04:28;95187.13;;;8.62;62.38
56831;BME280;42713;42.676;23.352;2023-03-01T10:09:45;95191.03;;;8.71;62.35
56831;BME280;42713;42.676;23.352;2023-03-01T10:12:24;95180.50;;;8.78;62.43
56831;BME280;42713;42.676;23.352;2023-03-01T10:15:11;95183.34;;;8.77;61.99
56831;BME280;42713;42.676;23.352;2023-03-01T10:20:33;95180.94;;;8.75;62.65
56831;BME280;42713;42.676;23.352;2023-03-01T10:23:01;95184.72;;;8.79;61.97
56831;BME280;42713;42.676;23.352;2023-03-01T10:28:39;95166.88;;;8.76;62.41
56831;BME280;42713;42.676;23.352;2023-03-01T10:31:12;95165.31;;;8.87;62.19
56831;BME280;42713;42.676;23.352;2023-03-01T10:33:39;95153.34;;;8.98;61.81
56831;BME280;42713;42.676;23.352;2023-03-01T10:36:05;95161.31;;;9.03;61.82
56831;BME280;42713;42.676;23.352;2023-03-01T10:38:47;95159.97;;;9.12;61.77
56831;BME280;42713;42.676;23.352;2023-03-01T10:41:13;95157.94;;;9.14;61.35
56831;BME280;42713;42.676;23.352;2023-03-01T10:43:50;95149.53;;;9.12;61.08
56831;BME280;42713;42.676;23.352;2023-03-01T10:46:35;95154.75;;;9.12;61.25
56831;BME280;42713;42.676;23.352;2023-03-01T10:49:20;95152.53;;;9.16;61.04
56831;BME280;42713;42.676;23.352;2023-03-01T10:51:48;95151.47;;;9.17;60.84
56831;BME280;42713;42.676;23.352;2023-03-01T10:54:18;95153.56;;;9.27;60.67
56831;BME280;42713;42.676;23.352;2023-03-01T10:56:52;95150.63;;;9.35;60.51
56831;BME280;42713;42.676;23.352;2023-03-01T10:59:26;95145.41;;;9.47;60.66
56831;BME280;42713;42.676;23.352;2023-03-01T11:02:15;95152.16;;;9.55;59.91
56831;BME280;42713;42.676;23.352;2023-03-01T11:04:56;95153.75;;;9.68;60.19
56831;BME280;42713;42.676;23.352;2023-03-01T11:07:22;95146.06;;;9.73;60.02
56831;BME280;42713;42.676;23.352;2023-03-01T11:09:48;95145.91;;;9.68;59.85
56831;BME280;42713;42.676;23.352;2023-03-01T11:12:15;95151.03;;;9.74;59.53
56831;BME280;42713;42.676;23.352;2023-03-01T11:14:50;95142.03;;;9.70;59.54
56831;BME280;42713;42.676;23.352;2023-03-01T11:17:29;95145.38;;;9.77;59.43
56831;BME280;42713;42.676;23.352;2023-03-01T11:22:32;95148.31;;;9.69;58.21
56831;BME280;42713;42.676;23.352;2023-03-01T11:25:00;95148.44;;;9.62;58.41
56831;BME280;42713;42.676;23.352;2023-03-01T11:27:30;95152.63;;;9.63;58.78
56831;BME280;42713;42.676;23.352;2023-03-01T11:30:06;95143.41;;;9.61;59.09
56831;BME280;42713;42.676;23.352;2023-03-01T11:32:40;95152.72;;;9.57;58.77
56831;BME280;42713;42.676;23.352;2023-03-01T11:35:23;95154.34;;;9.58;58.86
56831;BME280;42713;42.676;23.352;2023-03-01T11:40:35;95127.69;;;9.49;60.12
56831;BME280;42713;42.676;23.352;2023-03-01T11:43:26;95134.75;;;9.48;59.86
56831;BME280;42713;42.676;23.352;2023-03-01T11:48:56;95123.88;;;9.63;59.76
56831;BME280;42713;42.676;23.352;2023-03-01T11:54:29;95101.91;;;9.88;59.96
56831;BME280;42713;42.676;23.352;2023-03-01T12:00:20;95099.28;;;9.88;59.69
56831;BME280;42713;42.676;23.352;2023-03-01T12:02:52;95104.88;;;9.92;59.52
56831;BME280;42713;42.676;23.352;2023-03-01T12:10:52;95099.44;;;9.93;59.26
56831;BME280;42713;42.676;23.352;2023-03-01T12:13:48;95097.94;;;9.97;58.97
56831;BME280;42713;42.676;23.352;2023-03-01T12:16:47;95102.44;;;10.14;59.22
56831;BME280;42713;42.676;23.352;2023-03-01T12:25:30;95091.63;;;10.46;58.04
56831;BME280;42713;42.676;23.352;2023-03-01T12:39:42;95083.88;;;10.39;57.56
56831;BME280;42713;42.676;23.352;2023-03-01T12:50:36;95080.16;;;10.23;57.76
56831;BME280;42713;42.676;23.352;2023-03-01T12:53:30;95075.81;;;10.17;58.09
56831;BME280;42713;42.676;23.352;2023-03-01T12:56:24;95080.16;;;10.23;58.17
56831;BME280;42713;42.676;23.352;2023-03-01T12:59:11;95071.41;;;10.18;57.99
56831;BME280;42713;42.676;23.352;2023-03-01T13:01:56;95076.84;;;10.16;58.46
56831;BME280;42713;42.676;23.352;2023-03-01T13:04:30;95076.16;;;10.21;58.25
56831;BME280;42713;42.676;23.352;2023-03-01T13:18:02;95081.19;;;10.10;58.17
56831;BME280;42713;42.676;23.352;2023-03-01T13:20:44;95083.03;;;10.10;58.95
56831;BME280;42713;42.676;23.352;2023-03-01T13:23:13;95078.72;;;10.04;58.62
56831;BME280;42713;42.676;23.352;2023-03-01T13:26:17;95084.75;;;9.92;59.27
56831;BME280;42713;42.676;23.352;2023-03-01T13:33:50;95086.22;;;10.12;63.80
56831;BME280;42713;42.676;23.352;2023-03-01T13:39:27;95075.13;;;10.22;61.46
56831;BME280;42713;42.676;23.352;2023-03-01T13:41:54;95076.16;;;10.21;61.62
56831;BME280;42713;42.676;23.352;2023-03-01T13:46:50;95081.75;;;10.12;61.28
56831;BME280;42713;42.676;23.352;2023-03-01T13:49:19;95080.06;;;10.06;61.02
56831;BME280;42713;42.676;23.352;2023-03-01T13:51:47;95072.66;;;10.03;62.06
56831;BME280;42713;42.676;23.352;2023-03-01T13:54:15;95077.44;;;9.94;62.46
56831;BME280;42713;42.676;23.352;2023-03-01T13:56:43;95071.75;;;9.97;61.80
56831;BME280;42713;42.676;23.352;2023-03-01T13:59:18;95064.34;;;9.94;62.35
56831;BME280;42713;42.676;23.352;2023-03-01T14:01:55;95065.16;;;9.95;62.10
56831;BME280;42713;42.676;23.352;2023-03-01T14:04:22;95069.59;;;9.94;62.15
56831;BME280;42713;42.676;23.352;2023-03-01T14:06:48;95069.59;;;9.94;61.67
56831;BME280;42713;42.676;23.352;2023-03-01T14:19:47;95068.47;;;10.02;62.13
56831;BME280;42713;42.676;23.352;2023-03-01T14:22:30;95076.53;;;10.01;62.02
56831;BME280;42713;42.676;23.352;2023-03-01T14:25:00;95060.63;;;9.90;62.01
56831;BME280;42713;42.676;23.352;2023-03-01T14:27:28;95067.53;;;9.96;62.71
56831;BME280;42713;42.676;23.352;2023-03-01T14:30:00;95068.03;;;9.93;62.83
56831;BME280;42713;42.676;23.352;2023-03-01T14:32:29;95063.47;;;9.89;62.35
56831;BME280;42713;42.676;23.352;2023-03-01T14:34:57;95068.34;;;9.85;63.14
56831;BME280;42713;42.676;23.352;2023-03-01T14:37:29;95059.63;;;9.79;62.23
56831;BME280;42713;42.676;23.352;2023-03-01T14:39:56;95070.09;;;9.79;62.54
56831;BME280;42713;42.676;23.352;2023-03-01T14:42:24;95062.88;;;9.75;63.73
56831;BME280;42713;42.676;23.352;2023-03-01T14:44:54;95060.19;;;9.70;63.84
56831;BME280;42713;42.676;23.352;2023-03-01T14:47:32;95069.28;;;9.67;63.02
56831;BME280;42713;42.676;23.352;2023-03-01T14:52:39;95068.91;;;9.52;63.88
56831;BME280;42713;42.676;23.352;2023-03-01T14:55:23;95070.41;;;9.47;64.49
56831;BME280;42713;42.676;23.352;2023-03-01T14:57:51;95063.25;;;9.43;64.52
56831;BME280;42713;42.676;23.352;2023-03-01T15:00:22;95060.63;;;9.43;63.78